Impacts TAF Board INFO
FOR SITUATIONAL AWARENESS. NOT TO BE USED FOR FLIGHT PLANNING PURPOSES.
IDs:

KJFK - New York/Kennedy Int, NY, US

Issued at 2115 UTC 14 Aug 2018
Updated at 2203 UTC 14 Aug 2018
Potential Impact None Slight Moderate High
Time2151Z 14/23Z 15/00Z 15/01Z 15/02Z 15/03Z 15/04Z 15/05Z 15/06Z 15/07Z 15/08Z 15/09Z 15/10Z 15/11Z>>
Type OBS PRVL PRVL PRVL PRVL PRVL PRVL PRVL PRVL PRVL PRVL PRVL PRVL PRVL
VIS 10 >6 >6 >6 >6 >6 >6 >6 >6 >6 >6 >6 >6 >6
CIG 110 200 45 45 120 120 120 120 250 250 250 250 250 250
Cover BKN BKN BKN BKN BKN BKN BKN BKN BKN BKN BKN BKN BKN BKN
FltCat VFR VFR VFR VFR VFR VFR VFR VFR VFR VFR VFR VFR VFR VFR
WX -TSRA -- VCSH VCSH VCSH VCSH VCSH VCSH -- -- -- -- -- --
WDir 240 200 230 230 250 250 250 250 280 280 280 280 280 280
WSpd 8 10 11 11 11 11 11 11 11 11 11 11 11 11
WGst -- -- -- -- -- -- -- -- -- -- -- -- -- --

Raw TAF
KJFK 142115Z 1421/1524 VRB03KT 6SM -TSRA SCT025 BKN040CB
  TEMPO 1421/1422 4SM TSRA BKN025CB
  FM142200 20010KT P6SM FEW035 SCT045 BKN200
  TEMPO 1422/1423 -SHRA SCT035 BKN045
  FM150000 23011KT P6SM VCSH SCT035 BKN045
  FM150200 25011KT P6SM VCSH SCT040 BKN120
  FM150600 28011KT P6SM SCT050 BKN250
  FM151400 28012KT P6SM SCT050 SCT250
  FM151900 25012KT P6SM SCT250


Raw METAR
KJFK 142151Z 24008KT 10SM -TSRA SCT046CB SCT075 BKN110 BKN130 BKN250 22/22 A2983 RMK AO2 LTG DSNT NE-SE SLP102 OCNL LTGIC E TS E MOV E TCU DSNT S P0014 T02220222
KJFK 142147Z COR 24006KT 10SM -TSRA SCT046CB SCT075 BKN110 BKN130 BKN250 22/22 A2984 RMK AO2 LTG DSNT NE-S OCNL LTGIC E TS E MOV E TCU DSNT S P0014
KJFK 142051Z 31003KT 6SM R04R/2800VP6000FT TSRA SCT018 BKN026CB BKN070 BKN250 23/19 A2984 RMK AO2 WSHFT 2011 LTG DSNT ALQDS RAB48 TSB31 SLP104 FRQ LTGICCG NE-SW TS NE-SW MOV NE P0000 60000 T02280194 55008
KJFK 142048Z 31009KT 9SM R04R/2800VP6000FT -TSRA SCT018 BKN026CB BKN070 BKN250 24/19 A2984 RMK AO2 WSHFT 2011 LTG DSNT ALQDS RAB48 TSB31 FRQ LTGICCG NE-SW TS NE-SW MOV NE VCSH NE-SW P0000
KJFK 142031Z 31018KT 10SM TS FEW022 BKN039CB BKN060 BKN250 24/18 A2984 RMK AO2 WSHFT 2011 LTG DSNT ALQDS TSB31 OCNL LTGIC NW-N TS NW-N MOV NE CB S MOV NE T02440178
KJFK 141951Z 19013KT 10SM VCTS FEW020 SCT040CB SCT250 28/22 A2983 RMK AO2 LTG DSNT SW-N SLP100 OCNL LTGCG SW-NW CB SW-NW MOV E VCSH SW-NW T02780217
KJFK 141943Z 19012KT 10SM VCTS SCT040CB SCT250 28/22 A2983 RMK AO2 LTG DSNT SW-N CB SW-NW MOV E TCU NW VCSH SW-NW T02780217

METAR Board
Radar Display
Forecast Discussion

FOR SITUATIONAL AWARENESS. NOT TO BE USED FOR FLIGHT PLANNING PURPOSES.